sensor_id;sensor_type;location;lat;lon;timestamp;pressure;altitude;pressure_sealevel;temperature
74043;BMP280;62384;53.600;10.040;2023-05-07T00:00:13;70104.69;;;9.91
74043;BMP280;62384;53.600;10.040;2023-05-07T00:02:40;70341.38;;;9.91
74043;BMP280;62384;53.600;10.040;2023-05-07T00:05:06;70249.53;;;9.95
74043;BMP280;62384;53.600;10.040;2023-05-07T00:07:32;70191.72;;;9.90
74043;BMP280;62384;53.600;10.040;2023-05-07T00:09:57;70105.34;;;9.84
74043;BMP280;62384;53.600;10.040;2023-05-07T00:12:22;70428.38;;;9.96
74043;BMP280;62384;53.600;10.040;2023-05-07T00:14:48;70527.59;;;9.99
74043;BMP280;62384;53.600;10.040;2023-05-07T00:17:13;70483.63;;;9.93
74043;BMP280;62384;53.600;10.040;2023-05-07T00:19:38;70378.00;;;9.91
74043;BMP280;62384;53.600;10.040;2023-05-07T00:22:03;70327.59;;;9.91
74043;BMP280;62384;53.600;10.040;2023-05-07T00:24:29;70364.13;;;9.98
74043;BMP280;62384;53.600;10.040;2023-05-07T00:26:54;70275.00;;;9.94
74043;BMP280;62384;53.600;10.040;2023-05-07T00:29:19;70220.41;;;9.90
74043;BMP280;62384;53.600;10.040;2023-05-07T00:31:45;70225.06;;;9.97
74043;BMP280;62384;53.600;10.040;2023-05-07T00:34:10;70316.91;;;9.96
74043;BMP280;62384;53.600;10.040;2023-05-07T00:36:35;70376.34;;;9.97
74043;BMP280;62384;53.600;10.040;2023-05-07T00:39:00;70206.53;;;9.94
74043;BMP280;62384;53.600;10.040;2023-05-07T00:41:29;70343.47;;;9.93
74043;BMP280;62384;53.600;10.040;2023-05-07T00:43:55;70096.22;;;9.90
74043;BMP280;62384;53.600;10.040;2023-05-07T00:46:21;70089.84;;;9.92
74043;BMP280;62384;53.600;10.040;2023-05-07T00:48:46;70204.38;;;9.97
74043;BMP280;62384;53.600;10.040;2023-05-07T00:51:12;70192.63;;;10.01
74043;BMP280;62384;53.600;10.040;2023-05-07T00:53:37;70285.53;;;10.01
74043;BMP280;62384;53.600;10.040;2023-05-07T00:56:03;70354.56;;;9.99
74043;BMP280;62384;53.600;10.040;2023-05-07T00:58:28;70312.50;;;10.10
74043;BMP280;62384;53.600;10.040;2023-05-07T01:00:54;70383.66;;;10.06
74043;BMP280;62384;53.600;10.040;2023-05-07T01:03:20;70456.88;;;10.11
74043;BMP280;62384;53.600;10.040;2023-05-07T01:05:47;70117.59;;;9.80
74043;BMP280;62384;53.600;10.040;2023-05-07T01:08:14;70194.28;;;9.98
74043;BMP280;62384;53.600;10.040;2023-05-07T01:10:41;70127.81;;;10.05
74043;BMP280;62384;53.600;10.040;2023-05-07T01:13:08;70283.34;;;10.04
74043;BMP280;62384;53.600;10.040;2023-05-07T01:15:35;70121.03;;;9.99
74043;BMP280;62384;53.600;10.040;2023-05-07T01:18:00;70252.22;;;9.92
74043;BMP280;62384;53.600;10.040;2023-05-07T01:20:27;70406.00;;;10.02
74043;BMP280;62384;53.600;10.040;2023-05-07T01:22:53;70464.06;;;9.84
74043;BMP280;62384;53.600;10.040;2023-05-07T01:25:19;70070.81;;;9.86
74043;BMP280;62384;53.600;10.040;2023-05-07T01:27:45;70688.47;;;9.96
74043;BMP280;62384;53.600;10.040;2023-05-07T01:30:11;70686.38;;;9.91
74043;BMP280;62384;53.600;10.040;2023-05-07T01:32:51;70575.97;;;9.90
74043;BMP280;62384;53.600;10.040;2023-05-07T01:35:20;70660.34;;;9.94
74043;BMP280;62384;53.600;10.040;2023-05-07T01:37:48;70478.78;;;9.96
74043;BMP280;62384;53.600;10.040;2023-05-07T01:40:13;70632.13;;;10.05
74043;BMP280;62384;53.600;10.040;2023-05-07T01:42:39;70798.84;;;10.00
74043;BMP280;62384;53.600;10.040;2023-05-07T01:45:05;70940.63;;;9.91
74043;BMP280;62384;53.600;10.040;2023-05-07T01:47:31;70903.47;;;9.91
74043;BMP280;62384;53.600;10.040;2023-05-07T01:49:57;71004.84;;;9.96
74043;BMP280;62384;53.600;10.040;2023-05-07T01:52:24;70909.28;;;9.96
74043;BMP280;62384;53.600;10.040;2023-05-07T01:54:50;70882.75;;;9.99
74043;BMP280;62384;53.600;10.040;2023-05-07T01:57:15;70873.75;;;9.93
74043;BMP280;62384;53.600;10.040;2023-05-07T01:59:40;70752.16;;;9.98
74043;BMP280;62384;53.600;10.040;2023-05-07T02:02:05;70792.00;;;9.93
74043;BMP280;62384;53.600;10.040;2023-05-07T02:04:31;70512.81;;;9.93
74043;BMP280;62384;53.600;10.040;2023-05-07T02:06:56;70633.25;;;9.96
74043;BMP280;62384;53.600;10.040;2023-05-07T02:09:21;70784.53;;;9.99
74043;BMP280;62384;53.600;10.040;2023-05-07T02:11:48;70678.34;;;9.99
74043;BMP280;62384;53.600;10.040;2023-05-07T02:14:13;70631.69;;;9.92
74043;BMP280;62384;53.600;10.040;2023-05-07T02:16:38;70539.91;;;9.88
74043;BMP280;62384;53.600;10.040;2023-05-07T02:19:04;70389.22;;;9.86
74043;BMP280;62384;53.600;10.040;2023-05-07T02:21:29;70457.63;;;9.91
74043;BMP280;62384;53.600;10.040;2023-05-07T02:23:54;70320.72;;;9.89
74043;BMP280;62384;53.600;10.040;2023-05-07T02:26:20;70432.22;;;9.84
74043;BMP280;62384;53.600;10.040;2023-05-07T02:28:46;70290.03;;;9.83
74043;BMP280;62384;53.600;10.040;2023-05-07T02:31:12;70297.97;;;9.85
74043;BMP280;62384;53.600;10.040;2023-05-07T02:33:37;70404.56;;;9.88
74043;BMP280;62384;53.600;10.040;2023-05-07T02:36:10;69846.88;;;9.88
74043;BMP280;62384;53.600;10.040;2023-05-07T02:38:36;70410.84;;;9.97
74043;BMP280;62384;53.600;10.040;2023-05-07T02:41:01;70514.91;;;9.95
74043;BMP280;62384;53.600;10.040;2023-05-07T02:43:27;70366.31;;;9.92
74043;BMP280;62384;53.600;10.040;2023-05-07T02:46:06;70229.25;;;10.01
74043;BMP280;62384;53.600;10.040;2023-05-07T02:48:32;70330.66;;;10.01
74043;BMP280;62384;53.600;10.040;2023-05-07T02:50:58;70390.66;;;9.98
74043;BMP280;62384;53.600;10.040;2023-05-07T02:53:23;70275.00;;;9.94
74043;BMP280;62384;53.600;10.040;2023-05-07T02:55:52;70400.25;;;9.94
74043;BMP280;62384;53.600;10.040;2023-05-07T02:58:17;70437.03;;;9.81
74043;BMP280;62384;53.600;10.040;2023-05-07T03:00:43;70433.81;;;9.86
74043;BMP280;62384;53.600;10.040;2023-05-07T03:03:08;70362.31;;;9.71
74043;BMP280;62384;53.600;10.040;2023-05-07T03:05:33;70190.38;;;9.76
74043;BMP280;62384;53.600;10.040;2023-05-07T03:07:58;70371.81;;;9.77
74043;BMP280;62384;53.600;10.040;2023-05-07T03:10:24;70457.25;;;9.75
74043;BMP280;62384;53.600;10.040;2023-05-07T03:12:49;70478.41;;;9.83
74043;BMP280;62384;53.600;10.040;2023-05-07T03:15:14;70490.03;;;9.86
74043;BMP280;62384;53.600;10.040;2023-05-07T03:17:39;70558.53;;;9.83
74043;BMP280;62384;53.600;10.040;2023-05-07T03:20:06;70502.81;;;9.86
74043;BMP280;62384;53.600;10.040;2023-05-07T03:22:32;70572.34;;;9.81
74043;BMP280;62384;53.600;10.040;2023-05-07T03:24:57;70550.06;;;9.83
74043;BMP280;62384;53.600;10.040;2023-05-07T03:27:22;70501.22;;;9.84
74043;BMP280;62384;53.600;10.040;2023-05-07T03:29:48;70538.84;;;9.87
74043;BMP280;62384;53.600;10.040;2023-05-07T03:32:13;70563.31;;;9.80
74043;BMP280;62384;53.600;10.040;2023-05-07T03:34:38;70536.78;;;9.80
74043;BMP280;62384;53.600;10.040;2023-05-07T03:37:03;70510.19;;;9.88
74043;BMP280;62384;53.600;10.040;2023-05-07T03:39:29;70871.66;;;9.81
74043;BMP280;62384;53.600;10.040;2023-05-07T03:41:54;70927.38;;;9.83
74043;BMP280;62384;53.600;10.040;2023-05-07T03:44:20;71120.06;;;9.85
74043;BMP280;62384;53.600;10.040;2023-05-07T03:46:45;71113.16;;;9.83
74043;BMP280;62384;53.600;10.040;2023-05-07T03:49:10;71134.91;;;9.89
74043;BMP280;62384;53.600;10.040;2023-05-07T03:51:35;71301.09;;;9.93
74043;BMP280;62384;53.600;10.040;2023-05-07T03:54:01;71294.72;;;9.94
74043;BMP280;62384;53.600;10.040;2023-05-07T03:56:26;71298.44;;;9.98
74043;BMP280;62384;53.600;10.040;2023-05-07T03:58:52;71404.63;;;9.98
74043;BMP280;62384;53.600;10.040;2023-05-07T04:01:18;71493.34;;;10.01
74043;BMP280;62384;53.600;10.040;2023-05-07T04:03:43;71390.84;;;9.95
74043;BMP280;62384;53.600;10.040;2023-05-07T04:06:08;71396.69;;;10.00
74043;BMP280;62384;53.600;10.040;2023-05-07T04:08:34;71402.00;;;10.05
74043;BMP280;62384;53.600;10.040;2023-05-07T04:10:59;71428.03;;;10.07
74043;BMP280;62384;53.600;10.040;2023-05-07T04:13:25;71545.91;;;10.01
74043;BMP280;62384;53.600;10.040;2023-05-07T04:15:51;71318.06;;;9.96
74043;BMP280;62384;53.600;10.040;2023-05-07T04:18:16;71391.91;;;10.01
74043;BMP280;62384;53.600;10.040;2023-05-07T04:20:41;71605.34;;;9.97
74043;BMP280;62384;53.600;10.040;2023-05-07T04:23:07;71635.50;;;9.83
74043;BMP280;62384;53.600;10.040;2023-05-07T04:25:33;71723.75;;;9.96
74043;BMP280;62384;53.600;10.040;2023-05-07T04:27:58;71900.59;;;9.95
74043;BMP280;62384;53.600;10.040;2023-05-07T04:30:24;71970.66;;;9.93
74043;BMP280;62384;53.600;10.040;2023-05-07T04:32:49;71984.53;;;9.99
74043;BMP280;62384;53.600;10.040;2023-05-07T04:35:14;72190.00;;;9.95
74043;BMP280;62384;53.600;10.040;2023-05-07T04:37:39;72251.59;;;9.93
74043;BMP280;62384;53.600;10.040;2023-05-07T04:40:05;72241.53;;;9.96
74043;BMP280;62384;53.600;10.040;2023-05-07T04:42:31;72364.19;;;9.94
74043;BMP280;62384;53.600;10.040;2023-05-07T04:44:56;72364.38;;;10.04
74043;BMP280;62384;53.600;10.040;2023-05-07T04:47:21;72356.31;;;9.99
74043;BMP280;62384;53.600;10.040;2023-05-07T04:49:47;72281.06;;;10.08
74043;BMP280;62384;53.600;10.040;2023-05-07T04:52:12;72303.03;;;10.19
74043;BMP280;62384;53.600;10.040;2023-05-07T04:54:37;72211.53;;;10.13
74043;BMP280;62384;53.600;10.040;2023-05-07T04:57:05;71978.81;;;10.08
74043;BMP280;62384;53.600;10.040;2023-05-07T04:59:32;71977.94;;;10.23
74043;BMP280;62384;53.600;10.040;2023-05-07T05:01:57;72069.66;;;10.09
74043;BMP280;62384;53.600;10.040;2023-05-07T05:04:22;72073.34;;;10.07
74043;BMP280;62384;53.600;10.040;2023-05-07T05:06:48;72071.34;;;10.16
74043;BMP280;62384;53.600;10.040;2023-05-07T05:09:13;72179.16;;;10.12
74043;BMP280;62384;53.600;10.040;2023-05-07T05:11:39;72154.72;;;10.14
74043;BMP280;62384;53.600;10.040;2023-05-07T05:14:04;72078.13;;;10.07
74043;BMP280;62384;53.600;10.040;2023-05-07T05:16:30;72015.50;;;10.11
74043;BMP280;62384;53.600;10.040;2023-05-07T05:18:55;72024.47;;;10.06
74043;BMP280;62384;53.600;10.040;2023-05-07T05:21:20;72130.31;;;10.16
74043;BMP280;62384;53.600;10.040;2023-05-07T05:23:46;72160.63;;;10.17
74043;BMP280;62384;53.600;10.040;2023-05-07T05:26:12;72212.78;;;10.24
74043;BMP280;62384;53.600;10.040;2023-05-07T05:28:37;72211.16;;;10.22
74043;BMP280;62384;53.600;10.040;2023-05-07T05:31:02;72002.31;;;10.18
74043;BMP280;62384;53.600;10.040;2023-05-07T05:33:27;72214.00;;;10.32
74043;BMP280;62384;53.600;10.040;2023-05-07T05:35:56;72361.59;;;10.26
74043;BMP280;62384;53.600;10.040;2023-05-07T05:38:21;72509.09;;;10.40
74043;BMP280;62384;53.600;10.040;2023-05-07T05:40:47;72415.44;;;10.34
74043;BMP280;62384;53.600;10.040;2023-05-07T05:43:13;72383.91;;;10.25
74043;BMP280;62384;53.600;10.040;2023-05-07T05:45:38;72302.09;;;10.25
74043;BMP280;62384;53.600;10.040;2023-05-07T05:48:04;72397.47;;;10.40
74043;BMP280;62384;53.600;10.040;2023-05-07T05:50:29;72495.28;;;10.39
74043;BMP280;62384;53.600;10.040;2023-05-07T05:52:54;72435.75;;;10.41
74043;BMP280;62384;53.600;10.040;2023-05-07T05:55:20;72500.16;;;10.44
74043;BMP280;62384;53.600;10.040;2023-05-07T05:57:45;72566.09;;;10.46
74043;BMP280;62384;53.600;10.040;2023-05-07T06:00:11;72677.50;;;10.58
74043;BMP280;62384;53.600;10.040;2023-05-07T06:02:37;72727.69;;;10.45
74043;BMP280;62384;53.600;10.040;2023-05-07T06:05:03;72684.44;;;10.37
74043;BMP280;62384;53.600;10.040;2023-05-07T06:07:28;72757.34;;;10.41
74043;BMP280;62384;53.600;10.040;2023-05-07T06:09:54;72707.47;;;10.44
74043;BMP280;62384;53.600;10.040;2023-05-07T06:12:20;72715.63;;;10.51
74043;BMP280;62384;53.600;10.040;2023-05-07T06:14:46;72749.69;;;10.53
74043;BMP280;62384;53.600;10.040;2023-05-07T06:17:11;72878.38;;;10.54
74043;BMP280;62384;53.600;10.040;2023-05-07T06:19:36;72932.66;;;10.55
74043;BMP280;62384;53.600;10.040;2023-05-07T06:22:02;72854.47;;;10.54
74043;BMP280;62384;53.600;10.040;2023-05-07T06:24:27;72974.09;;;10.54
74043;BMP280;62384;53.600;10.040;2023-05-07T06:26:53;72842.13;;;10.50
74043;BMP280;62384;53.600;10.040;2023-05-07T06:29:18;72849.56;;;10.50
74043;BMP280;62384;53.600;10.040;2023-05-07T06:31:43;72812.06;;;10.59
74043;BMP280;62384;53.600;10.040;2023-05-07T06:34:09;72872.25;;;10.63
74043;BMP280;62384;53.600;10.040;2023-05-07T06:36:35;72849.81;;;10.60
74043;BMP280;62384;53.600;10.040;2023-05-07T06:39:01;72903.47;;;10.58
74043;BMP280;62384;53.600;10.040;2023-05-07T06:41:27;72803.47;;;10.56
74043;BMP280;62384;53.600;10.040;2023-05-07T06:43:52;72939.75;;;10.62
74043;BMP280;62384;53.600;10.040;2023-05-07T06:46:17;73000.84;;;10.59
74043;BMP280;62384;53.600;10.040;2023-05-07T06:48:43;73024.72;;;10.76
74043;BMP280;62384;53.600;10.040;2023-05-07T06:51:08;73086.81;;;10.72
74043;BMP280;62384;53.600;10.040;2023-05-07T06:53:35;73031.41;;;10.68
74043;BMP280;62384;53.600;10.040;2023-05-07T06:56:00;73135.25;;;10.73
74043;BMP280;62384;53.600;10.040;2023-05-07T06:58:25;73303.53;;;10.78
74043;BMP280;62384;53.600;10.040;2023-05-07T07:00:51;73237.56;;;10.79
74043;BMP280;62384;53.600;10.040;2023-05-07T07:03:16;73285.25;;;10.89
74043;BMP280;62384;53.600;10.040;2023-05-07T07:05:41;73313.78;;;10.83
74043;BMP280;62384;53.600;10.040;2023-05-07T07:08:07;73340.78;;;10.78
74043;BMP280;62384;53.600;10.040;2023-05-07T07:10:32;73340.94;;;10.84
74043;BMP280;62384;53.600;10.040;2023-05-07T07:12:57;73417.09;;;10.85
74043;BMP280;62384;53.600;10.040;2023-05-07T07:15:22;73552.50;;;10.92
74043;BMP280;62384;53.600;10.040;2023-05-07T07:17:50;73467.16;;;10.87
74043;BMP280;62384;53.600;10.040;2023-05-07T07:20:15;73505.88;;;10.98
74043;BMP280;62384;53.600;10.040;2023-05-07T07:22:41;73606.06;;;11.17
74043;BMP280;62384;53.600;10.040;2023-05-07T07:25:07;73826.38;;;11.14
74043;BMP280;62384;53.600;10.040;2023-05-07T07:27:32;73775.09;;;11.23
74043;BMP280;62384;53.600;10.040;2023-05-07T07:29:57;73932.56;;;11.33
74043;BMP280;62384;53.600;10.040;2023-05-07T07:32:22;73996.72;;;11.38
74043;BMP280;62384;53.600;10.040;2023-05-07T07:34:48;73882.47;;;11.19
74043;BMP280;62384;53.600;10.040;2023-05-07T07:37:13;73830.72;;;11.15
74043;BMP280;62384;53.600;10.040;2023-05-07T07:39:39;73913.19;;;11.27
74043;BMP280;62384;53.600;10.040;2023-05-07T07:42:04;73835.22;;;11.22
74043;BMP280;62384;53.600;10.040;2023-05-07T07:44:29;73894.66;;;11.30
74043;BMP280;62384;53.600;10.040;2023-05-07T07:46:55;73928.84;;;11.20
74043;BMP280;62384;53.600;10.040;2023-05-07T07:49:20;73959.69;;;11.19
74043;BMP280;62384;53.600;10.040;2023-05-07T07:51:45;74107.00;;;11.51
74043;BMP280;62384;53.600;10.040;2023-05-07T07:54:11;74075.25;;;11.56
74043;BMP280;62384;53.600;10.040;2023-05-07T07:56:36;74218.13;;;11.58
74043;BMP280;62384;53.600;10.040;2023-05-07T07:59:01;74206.69;;;11.52
74043;BMP280;62384;53.600;10.040;2023-05-07T08:01:29;74264.75;;;11.64
74043;BMP280;62384;53.600;10.040;2023-05-07T08:03:55;74176.94;;;11.66
74043;BMP280;62384;53.600;10.040;2023-05-07T08:06:20;74150.28;;;11.66
74043;BMP280;62384;53.600;10.040;2023-05-07T08:08:45;74213.34;;;11.70
74043;BMP280;62384;53.600;10.040;2023-05-07T08:11:10;74158.50;;;11.59
74043;BMP280;62384;53.600;10.040;2023-05-07T08:13:36;74111.69;;;11.48
74043;BMP280;62384;53.600;10.040;2023-05-07T08:16:02;74086.81;;;11.52
74043;BMP280;62384;53.600;10.040;2023-05-07T08:18:27;74032.97;;;11.52
74043;BMP280;62384;53.600;10.040;2023-05-07T08:20:56;74147.41;;;11.73
74043;BMP280;62384;53.600;10.040;2023-05-07T08:23:22;74171.28;;;11.59
74043;BMP280;62384;53.600;10.040;2023-05-07T08:25:49;74140.53;;;11.50
74043;BMP280;62384;53.600;10.040;2023-05-07T08:28:14;74311.84;;;11.80
74043;BMP280;62384;53.600;10.040;2023-05-07T08:30:40;74322.97;;;11.78
74043;BMP280;62384;53.600;10.040;2023-05-07T08:33:05;74347.84;;;11.74
74043;BMP280;62384;53.600;10.040;2023-05-07T08:35:30;74408.19;;;11.87
74043;BMP280;62384;53.600;10.040;2023-05-07T08:37:56;74479.03;;;11.86
74043;BMP280;62384;53.600;10.040;2023-05-07T08:40:25;74367.13;;;11.65
74043;BMP280;62384;53.600;10.040;2023-05-07T08:42:52;74449.41;;;11.69
74043;BMP280;62384;53.600;10.040;2023-05-07T08:45:18;74295.31;;;11.67
74043;BMP280;62384;53.600;10.040;2023-05-07T08:47:46;74342.94;;;11.72
74043;BMP280;62384;53.600;10.040;2023-05-07T08:50:12;74521.25;;;11.88
74043;BMP280;62384;53.600;10.040;2023-05-07T08:52:39;74532.97;;;11.77
74043;BMP280;62384;53.600;10.040;2023-05-07T08:55:05;74580.59;;;11.91
74043;BMP280;62384;53.600;10.040;2023-05-07T08:57:31;74610.41;;;12.01
74043;BMP280;62384;53.600;10.040;2023-05-07T08:59:56;74638.56;;;11.88
74043;BMP280;62384;53.600;10.040;2023-05-07T09:02:22;74581.50;;;11.99
74043;BMP280;62384;53.600;10.040;2023-05-07T09:04:47;74642.84;;;11.99
74043;BMP280;62384;53.600;10.040;2023-05-07T09:07:13;74525.81;;;11.95
74043;BMP280;62384;53.600;10.040;2023-05-07T09:09:38;74655.69;;;11.89
74043;BMP280;62384;53.600;10.040;2023-05-07T09:12:03;74686.13;;;12.12
74043;BMP280;62384;53.600;10.040;2023-05-07T09:14:29;74756.66;;;12.03
74043;BMP280;62384;53.600;10.040;2023-05-07T09:16:56;74850.94;;;12.11
74043;BMP280;62384;53.600;10.040;2023-05-07T09:19:27;74787.66;;;12.05
74043;BMP280;62384;53.600;10.040;2023-05-07T09:22:03;74642.00;;;11.72
74043;BMP280;62384;53.600;10.040;2023-05-07T09:24:28;74678.69;;;12.12
74043;BMP280;62384;53.600;10.040;2023-05-07T09:26:58;74803.47;;;12.21
74043;BMP280;62384;53.600;10.040;2023-05-07T09:29:24;74720.97;;;12.05
74043;BMP280;62384;53.600;10.040;2023-05-07T09:31:49;74771.59;;;12.24
74043;BMP280;62384;53.600;10.040;2023-05-07T09:34:15;74897.38;;;12.32
74043;BMP280;62384;53.600;10.040;2023-05-07T09:36:41;74918.44;;;12.27
74043;BMP280;62384;53.600;10.040;2023-05-07T09:39:06;75014.75;;;12.41
74043;BMP280;62384;53.600;10.040;2023-05-07T09:41:32;75104.66;;;12.36
74043;BMP280;62384;53.600;10.040;2023-05-07T09:43:57;75238.00;;;12.52
74043;BMP280;62384;53.600;10.040;2023-05-07T09:46:29;75162.69;;;12.42
74043;BMP280;62384;53.600;10.040;2023-05-07T09:48:57;75255.84;;;12.56
74043;BMP280;62384;53.600;10.040;2023-05-07T09:51:30;75310.44;;;12.76
74043;BMP280;62384;53.600;10.040;2023-05-07T09:53:57;75394.78;;;12.85
74043;BMP280;62384;53.600;10.040;2023-05-07T09:56:24;75388.81;;;12.65
74043;BMP280;62384;53.600;10.040;2023-05-07T09:58:49;75425.41;;;12.79
74043;BMP280;62384;53.600;10.040;2023-05-07T10:01:17;75475.59;;;12.78
74043;BMP280;62384;53.600;10.040;2023-05-07T10:03:44;75546.09;;;12.70
74043;BMP280;62384;53.600;10.040;2023-05-07T10:06:11;75530.34;;;12.91
74043;BMP280;62384;53.600;10.040;2023-05-07T10:08:38;75480.09;;;12.82
74043;BMP280;62384;53.600;10.040;2023-05-07T10:11:04;75519.50;;;13.15
74043;BMP280;62384;53.600;10.040;2023-05-07T10:13:31;75613.22;;;13.01
74043;BMP280;62384;53.600;10.040;2023-05-07T10:15:57;75498.28;;;12.91
74043;BMP280;62384;53.600;10.040;2023-05-07T10:18:23;75615.81;;;13.08
74043;BMP280;62384;53.600;10.040;2023-05-07T10:20:50;75618.66;;;12.94
74043;BMP280;62384;53.600;10.040;2023-05-07T10:23:20;75488.31;;;12.94
74043;BMP280;62384;53.600;10.040;2023-05-07T10:25:47;75555.09;;;12.94
74043;BMP280;62384;53.600;10.040;2023-05-07T10:28:12;75647.72;;;12.89
74043;BMP280;62384;53.600;10.040;2023-05-07T10:31:08;75595.69;;;12.85
74043;BMP280;62384;53.600;10.040;2023-05-07T10:33:33;75630.25;;;13.00
74043;BMP280;62384;53.600;10.040;2023-05-07T10:36:00;75668.03;;;13.14
74043;BMP280;62384;53.600;10.040;2023-05-07T10:38:27;75747.88;;;13.42
74043;BMP280;62384;53.600;10.040;2023-05-07T10:40:53;75799.63;;;13.24
74043;BMP280;62384;53.600;10.040;2023-05-07T10:43:18;75710.97;;;13.17
74043;BMP280;62384;53.600;10.040;2023-05-07T10:45:43;75720.81;;;13.21
74043;BMP280;62384;53.600;10.040;2023-05-07T10:50:38;75708.25;;;13.33
74043;BMP280;62384;53.600;10.040;2023-05-07T10:55:46;75923.22;;;13.58
74043;BMP280;62384;53.600;10.040;2023-05-07T11:00:46;75723.84;;;13.09
74043;BMP280;62384;53.600;10.040;2023-05-07T11:03:11;75845.03;;;13.48
74043;BMP280;62384;53.600;10.040;2023-05-07T11:05:37;75948.03;;;13.61
74043;BMP280;62384;53.600;10.040;2023-05-07T11:08:03;75995.34;;;13.48
74043;BMP280;62384;53.600;10.040;2023-05-07T11:13:15;76260.03;;;14.00
74043;BMP280;62384;53.600;10.040;2023-05-07T11:15:47;76366.78;;;14.26
74043;BMP280;62384;53.600;10.040;2023-05-07T11:18:15;76395.81;;;14.42
74043;BMP280;62384;53.600;10.040;2023-05-07T11:20:49;76440.47;;;14.22
74043;BMP280;62384;53.600;10.040;2023-05-07T11:26:03;76630.88;;;14.70
74043;BMP280;62384;53.600;10.040;2023-05-07T11:28:28;76749.16;;;15.10
74043;BMP280;62384;53.600;10.040;2023-05-07T11:30:54;76800.50;;;15.08
74043;BMP280;62384;53.600;10.040;2023-05-07T11:33:22;76868.13;;;15.15
74043;BMP280;62384;53.600;10.040;2023-05-07T11:35:47;76932.16;;;15.32
74043;BMP280;62384;53.600;10.040;2023-05-07T11:38:13;76883.84;;;15.17
74043;BMP280;62384;53.600;10.040;2023-05-07T11:40:56;76989.66;;;15.54
74043;BMP280;62384;53.600;10.040;2023-05-07T11:43:21;77029.72;;;15.58
74043;BMP280;62384;53.600;10.040;2023-05-07T11:45:48;77130.31;;;16.37
74043;BMP280;62384;53.600;10.040;2023-05-07T11:48:14;77215.00;;;16.68
74043;BMP280;62384;53.600;10.040;2023-05-07T11:53:25;77188.47;;;16.31
74043;BMP280;62384;53.600;10.040;2023-05-07T11:55:55;77162.16;;;16.25
74043;BMP280;62384;53.600;10.040;2023-05-07T11:58:22;77126.47;;;16.14
74043;BMP280;62384;53.600;10.040;2023-05-07T12:00:51;77132.56;;;15.89
74043;BMP280;62384;53.600;10.040;2023-05-07T12:03:17;77144.13;;;16.13
74043;BMP280;62384;53.600;10.040;2023-05-07T12:05:48;77073.66;;;15.64
74043;BMP280;62384;53.600;10.040;2023-05-07T12:08:14;77096.31;;;15.86
74043;BMP280;62384;53.600;10.040;2023-05-07T12:10:41;77089.19;;;15.70
74043;BMP280;62384;53.600;10.040;2023-05-07T12:13:17;77118.19;;;15.98
74043;BMP280;62384;53.600;10.040;2023-05-07T12:15:43;77155.84;;;16.26
74043;BMP280;62384;53.600;10.040;2023-05-07T12:18:08;77165.25;;;16.23
74043;BMP280;62384;53.600;10.040;2023-05-07T12:20:35;77165.22;;;16.15
74043;BMP280;62384;53.600;10.040;2023-05-07T12:23:01;77241.88;;;16.54
74043;BMP280;62384;53.600;10.040;2023-05-07T12:25:30;77174.09;;;16.33
74043;BMP280;62384;53.600;10.040;2023-05-07T12:27:56;77114.69;;;15.74
74043;BMP280;62384;53.600;10.040;2023-05-07T12:30:24;77158.09;;;16.00
74043;BMP280;62384;53.600;10.040;2023-05-07T12:32:52;77192.34;;;16.39
74043;BMP280;62384;53.600;10.040;2023-05-07T12:35:26;77192.72;;;16.44
74043;BMP280;62384;53.600;10.040;2023-05-07T12:37:55;77256.31;;;16.60
74043;BMP280;62384;53.600;10.040;2023-05-07T12:40:20;77214.44;;;16.54
74043;BMP280;62384;53.600;10.040;2023-05-07T12:42:46;77238.44;;;16.65
74043;BMP280;62384;53.600;10.040;2023-05-07T12:45:12;77326.91;;;17.45
74043;BMP280;62384;53.600;10.040;2023-05-07T12:47:37;77368.84;;;17.65
74043;BMP280;62384;53.600;10.040;2023-05-07T12:50:05;77414.41;;;18.05
74043;BMP280;62384;53.600;10.040;2023-05-07T12:52:31;77436.34;;;18.03
74043;BMP280;62384;53.600;10.040;2023-05-07T12:55:04;77425.97;;;18.08
74043;BMP280;62384;53.600;10.040;2023-05-07T12:57:30;77460.00;;;18.37
74043;BMP280;62384;53.600;10.040;2023-05-07T12:59:57;77537.06;;;18.57
74043;BMP280;62384;53.600;10.040;2023-05-07T13:02:32;77426.75;;;17.82
74043;BMP280;62384;53.600;10.040;2023-05-07T13:04:57;77424.25;;;17.92
74043;BMP280;62384;53.600;10.040;2023-05-07T13:07:24;77474.47;;;18.36
74043;BMP280;62384;53.600;10.040;2023-05-07T13:09:50;77400.75;;;17.88
74043;BMP280;62384;53.600;10.040;2023-05-07T13:12:15;77445.97;;;18.23
74043;BMP280;62384;53.600;10.040;2023-05-07T13:14:40;77382.31;;;17.65
74043;BMP280;62384;53.600;10.040;2023-05-07T13:17:07;77422.69;;;17.86
74043;BMP280;62384;53.600;10.040;2023-05-07T13:19:32;77387.09;;;17.71
74043;BMP280;62384;53.600;10.040;2023-05-07T13:21:57;77324.59;;;17.36
74043;BMP280;62384;53.600;10.040;2023-05-07T13:24:22;77353.63;;;17.42
74043;BMP280;62384;53.600;10.040;2023-05-07T13:26:47;77367.28;;;17.45
74043;BMP280;62384;53.600;10.040;2023-05-07T13:29:13;77399.41;;;17.84
74043;BMP280;62384;53.600;10.040;2023-05-07T13:31:38;77392.69;;;18.02
74043;BMP280;62384;53.600;10.040;2023-05-07T13:34:07;77494.84;;;18.56
74043;BMP280;62384;53.600;10.040;2023-05-07T13:36:33;77533.00;;;18.61
74043;BMP280;62384;53.600;10.040;2023-05-07T13:39:02;77513.97;;;18.58
74043;BMP280;62384;53.600;10.040;2023-05-07T13:41:28;77478.88;;;18.37
74043;BMP280;62384;53.600;10.040;2023-05-07T13:43:53;77491.44;;;18.32
74043;BMP280;62384;53.600;10.040;2023-05-07T13:46:18;77524.75;;;18.51
74043;BMP280;62384;53.600;10.040;2023-05-07T13:48:43;77494.69;;;18.39
74043;BMP280;62384;53.600;10.040;2023-05-07T13:51:09;77508.34;;;18.56
74043;BMP280;62384;53.600;10.040;2023-05-07T13:53:34;77458.09;;;18.26
74043;BMP280;62384;53.600;10.040;2023-05-07T13:56:00;77446.53;;;18.09
74043;BMP280;62384;53.600;10.040;2023-05-07T13:58:25;77445.41;;;17.94
74043;BMP280;62384;53.600;10.040;2023-05-07T14:00:51;77421.34;;;17.89
74043;BMP280;62384;53.600;10.040;2023-05-07T14:03:16;77478.91;;;18.30
74043;BMP280;62384;53.600;10.040;2023-05-07T14:05:42;77543.03;;;18.51
74043;BMP280;62384;53.600;10.040;2023-05-07T14:08:08;77569.81;;;18.76